Updated24/08/2019 13:20 
 

GeoURL
free counters
Scottish Weather Network UK Weather Network Cumulus Top Weather Sites

Peebles Weather - Nearby METAR Reports

Raw Data, Raw Data Expanded

Ignore low humidity and Dew Point values. Something wrong with the sensor.
Daytime temperatures are in direct sunlight so may be higher than official air temperature values.
As with any other website, we log your IP address and browser type in the server logs for diagnostic reasons. Cookies are used to record visit time and gauges preferences. No personal information is stored or processed.

All times are in local time (GMT, or BST in summer) unless specified.

2019/08/24 11:50 EGPH 241150Z 25007KT 210V280 9999 FEW034 22/15 Q1017
24.7°C 0.0 mm 0.0 mm 0.0 mm 2.6 mph 3.8 mph 1013.3 hPa 57% X-Ray Solar Flare Level
Planetary K-Index
Planetary K-Index History
Station Warn Rain Snow Flood Wind Ltng Heat Cold Glob Moon Temp Rain 1h Rain Sat Rain 24h Wind 10m Gust Pressure Hum Proton Levels

0.39 m Waning Crescent Comfortable F1-SE F: A: Kp:0 SSN:0

METAR Reports

 

EGPH - Edinburgh Airpor, United Kingdom
Distance from station: NNW 22mi, 36km
Updated: 24/08/2019 12:50
Few Clouds
Few Clouds
 Wind from WSW
Wind: WSW 8 mph , 13 km/h
Temperature: 22°C
Dew Point: 15°C
Humidity: 65%
Barometer: 1017 hPa
Clouds: Few Clouds
Visibility: 6 miles , 10 km
Cloud details: Few Clouds 1036 m
2019/08/24 11:50 EGPH 241150Z 25007KT 210V280 9999 FEW034 22/15 Q1017
EGOM - Spadeadam, United Kingdom
Distance from station: SSE 49mi, 79km
Updated: 24/08/2019 12:50
Overcast
Overcast
 Wind from SE
Wind: SE 8 mph , 13 km/h
Temperature: 23°C
Dew Point: 13°C
Humidity: 53%
Barometer: 1018 hPa
Clouds: Overcast
Visibility: 6 miles , 10 km
Cloud details: Overcast 4877 m
2019/08/24 11:50 EGOM 241150Z AUTO 14007KT 9999 OVC160/// 23/13 Q1018
 
EGNC - Carlisle, United Kingdom
Distance from station: SSE 51mi, 82km
Updated: 24/08/2019 12:50
Clear
Clear
 Wind from S
Wind: S 8 mph , 13 km/h
Temperature: 22°C
Dew Point: 13°C
Humidity: 57%
Barometer: 1018 hPa
Summary: Clear
Visibility: greater than 7 miles , 10 km
2019/08/24 11:50 EGNC 241150Z 17007KT 120V220 CAVOK 22/13 Q1018
EGPF - Glasgow Airport, United Kingdom
Distance from station: WNW 51mi, 82km
Updated: 24/08/2019 12:50
Clear
Clear
 Wind from WNW
Wind: WNW 5 mph , 7 km/h
Temperature: 21°C
Dew Point: 15°C
Humidity: 69%
Barometer: 1017 hPa
Clouds: Clear
Visibility: 6 miles , 10 km
2019/08/24 11:50 EGPF 241150Z AUTO 29004KT 230V320 9999 NCD 21/15 Q1017
 
EGQL - Leuchars Raf, United Kingdom
Distance from station: NNE 53mi, 85km
Updated: 24/08/2019 12:50
Clear
Clear
 Wind from ENE
Wind: ENE 6 mph , 9 km/h
Temperature: 20°C
Dew Point: 15°C
Humidity: 73%
Barometer: 1017 hPa
Summary: Clear
Visibility: greater than 7 miles , 10 km
2019/08/24 11:50 EGQL 241150Z 07005KT CAVOK 20/15 Q1017 BLU
EGPK - Prestwick(Civ/Na, United Kingdom
Distance from station: W 55mi, 89km
Updated: 24/08/2019 12:50
Few Clouds
Few Clouds
 Wind from S
Wind: S 14 mph , 22 km/h
Temperature: 22°C
Dew Point: 12°C
Humidity: 53%
Barometer: 1017 hPa
Clouds: Few Clouds
Visibility: 6 miles , 10 km
Cloud details: Few Clouds 914 m
2019/08/24 11:50 EGPK 241150Z 17012KT 9999 FEW030 22/12 Q1017
 
EGPN - Dundee/Riverside, United Kingdom
Distance from station: N 56mi, 90km
Updated: 24/08/2019 12:50
Few Clouds
Few Clouds
 Wind from W
Wind: W 6 mph , 9 km/h
Temperature: 22°C
Dew Point: 15°C
Humidity: 65%
Barometer: 1018 hPa
Clouds: Few Clouds
Visibility: 6 miles , 10 km
Cloud details: Few Clouds 853 m
2019/08/24 11:50 EGPN 241150Z 26005KT 9999 FEW028 22/15 Q1018
EGNT - Newcastle, United Kingdom
Distance from station: SE 72mi, 116km
Updated: 24/08/2019 12:50
Clear
Clear
 Wind from S
Wind: S 9 mph , 15 km/h
Temperature: 25°C
Dew Point: 13°C
Humidity: 47%
Barometer: 1018 hPa
Summary: Clear
Visibility: greater than 7 miles , 10 km
2019/08/24 11:50 EGNT 241150Z 17008KT 100V230 CAVOK 25/13 Q1018
 
EGNV - Tees-Side, United Kingdom
Distance from station: SE 104mi, 168km
Updated: 24/08/2019 12:50
Clear
Clear
 Wind from SSE
Wind: SSE 14 mph , 22 km/h
Temperature: 24°C
Dew Point: 13°C
Humidity: 50%
Barometer: 1019 hPa
Summary: Clear
Visibility: greater than 7 miles , 10 km
2019/08/24 11:50 EGNV 241150Z 16012KT CAVOK 24/13 Q1019
EGPD - Aberdeen/Dyce, United Kingdom
Distance from station: NNE 114mi, 183km
Updated: 24/08/2019 12:50
Clear
Clear
 Wind from S
Wind: S 15 mph , 24 km/h
Temperature: 18°C
Dew Point: 15°C
Humidity: 83%
Barometer: 1017 hPa
Clouds: Clear
Visibility: 6 miles , 10 km
2019/08/24 11:50 EGPD 241150Z AUTO 17013KT 9999 NCD 18/15 Q1017 NOSIG
 
EGNS - Isle Of Man/Rona, United Kingdom
Distance from station: SSW 122mi, 197km
Updated: 24/08/2019 12:50
Clear
Clear
 Wind from ENE
Wind: ENE 9 mph , 15 km/h
Temperature: 19°C
Dew Point: 15°C
Humidity: 78%
Barometer: 1017 hPa
Summary: Clear
Visibility: greater than 7 miles , 10 km
2019/08/24 11:50 EGNS 241150Z 07008KT CAVOK 19/15 Q1017 NOSIG
EGAC - Belfast Harbour, United Kingdom
Distance from station: WSW 128mi, 206km
Updated: 24/08/2019 12:50
Clear
Clear
 Wind from SSE
Wind: SSE 13 mph , 20 km/h
Temperature: 21°C
Dew Point: 13°C
Humidity: 60%
Barometer: 1016 hPa
Clouds: Clear
Visibility: 6 miles , 10 km
2019/08/24 11:50 EGAC 241150Z AUTO 16011KT 120V190 9999 NCD 21/13 Q1016
 
EGPE - Inverness/Dalcro, United Kingdom
Distance from station: NNW 134mi, 215km
Updated: 24/08/2019 12:50
Few Clouds
Few Clouds
 Wind from W
Wind: W 2 mph , 4 km/h
Temperature: 19°C
Dew Point: 14°C
Humidity: 73%
Barometer: 1016 hPa
Clouds: Few Clouds
Visibility: 6 miles , 10 km
Cloud details: Few Clouds 1036 m
2019/08/24 11:50 EGPE 241150Z 28002KT 9999 FEW034 19/14 Q1016
XHTML 1.1 | CSS